sensor_id;sensor_type;location;lat;lon;timestamp;pressure;altitude;pressure_sealevel;temperature;humidity
64628;BME280;68467;50.960;0.314;2024-02-23T00:02:15;97130.56;;;5.00;100.00
64628;BME280;68467;50.960;0.314;2024-02-23T00:04:42;97124.86;;;5.62;100.00
64628;BME280;68467;50.960;0.314;2024-02-23T00:07:09;97119.02;;;5.78;100.00
64628;BME280;68467;50.960;0.314;2024-02-23T00:09:37;97121.36;;;5.96;100.00
64628;BME280;68467;50.960;0.314;2024-02-23T00:12:05;97118.51;;;5.52;100.00
64628;BME280;68467;50.960;0.314;2024-02-23T00:14:33;97121.18;;;5.37;100.00
64628;BME280;68467;50.960;0.314;2024-02-23T00:17:00;97121.95;;;5.12;100.00
64628;BME280;68467;50.960;0.314;2024-02-23T00:19:27;97124.34;;;5.33;100.00
64628;BME280;68467;50.960;0.314;2024-02-23T00:21:55;97125.27;;;4.70;100.00
64628;BME280;68467;50.960;0.314;2024-02-23T00:24:22;97126.18;;;5.28;100.00
64628;BME280;68467;50.960;0.314;2024-02-23T00:26:49;97120.00;;;5.73;100.00
64628;BME280;68467;50.960;0.314;2024-02-23T00:29:16;97116.26;;;4.95;100.00
64628;BME280;68467;50.960;0.314;2024-02-23T00:31:44;97108.71;;;5.99;100.00
64628;BME280;68467;50.960;0.314;2024-02-23T00:34:11;97098.93;;;5.61;100.00
64628;BME280;68467;50.960;0.314;2024-02-23T00:36:40;97097.05;;;5.48;100.00
64628;BME280;68467;50.960;0.314;2024-02-23T00:39:08;97096.85;;;6.10;100.00
64628;BME280;68467;50.960;0.314;2024-02-23T00:41:36;97091.33;;;6.46;100.00
64628;BME280;68467;50.960;0.314;2024-02-23T00:44:03;97086.18;;;5.72;100.00
64628;BME280;68467;50.960;0.314;2024-02-23T00:46:30;97082.52;;;5.92;100.00
64628;BME280;68467;50.960;0.314;2024-02-23T00:48:57;97082.25;;;6.03;100.00
64628;BME280;68467;50.960;0.314;2024-02-23T00:51:25;97079.46;;;5.33;100.00
64628;BME280;68467;50.960;0.314;2024-02-23T00:53:52;97082.86;;;5.57;100.00
64628;BME280;68467;50.960;0.314;2024-02-23T00:56:20;97078.50;;;5.50;100.00
64628;BME280;68467;50.960;0.314;2024-02-23T00:58:47;97082.35;;;5.81;100.00
64628;BME280;68467;50.960;0.314;2024-02-23T01:01:15;97081.40;;;6.10;100.00
64628;BME280;68467;50.960;0.314;2024-02-23T01:03:43;97075.33;;;6.36;100.00
64628;BME280;68467;50.960;0.314;2024-02-23T01:06:10;97075.89;;;6.35;100.00
64628;BME280;68467;50.960;0.314;2024-02-23T01:08:37;97077.99;;;6.16;100.00
64628;BME280;68467;50.960;0.314;2024-02-23T01:11:05;97086.05;;;6.58;100.00
64628;BME280;68467;50.960;0.314;2024-02-23T01:13:33;97087.04;;;6.93;100.00
64628;BME280;68467;50.960;0.314;2024-02-23T01:16:01;97087.69;;;6.70;100.00
64628;BME280;68467;50.960;0.314;2024-02-23T01:18:28;97086.84;;;6.36;100.00
64628;BME280;68467;50.960;0.314;2024-02-23T01:20:56;97077.06;;;6.18;100.00
64628;BME280;68467;50.960;0.314;2024-02-23T01:23:24;97066.31;;;5.77;100.00
64628;BME280;68467;50.960;0.314;2024-02-23T01:25:51;97060.81;;;5.55;100.00
64628;BME280;68467;50.960;0.314;2024-02-23T01:28:18;97056.13;;;5.90;100.00
64628;BME280;68467;50.960;0.314;2024-02-23T01:30:45;97062.73;;;5.99;100.00
64628;BME280;68467;50.960;0.314;2024-02-23T01:33:12;97060.82;;;5.68;100.00
64628;BME280;68467;50.960;0.314;2024-02-23T01:35:40;97054.67;;;5.74;100.00
64628;BME280;68467;50.960;0.314;2024-02-23T01:38:06;97055.14;;;5.85;100.00
64628;BME280;68467;50.960;0.314;2024-02-23T01:40:34;97047.01;;;6.17;100.00
64628;BME280;68467;50.960;0.314;2024-02-23T01:43:02;97033.66;;;5.60;100.00
64628;BME280;68467;50.960;0.314;2024-02-23T01:45:29;97037.03;;;5.75;100.00
64628;BME280;68467;50.960;0.314;2024-02-23T01:47:57;97040.36;;;5.67;100.00
64628;BME280;68467;50.960;0.314;2024-02-23T01:50:26;97041.93;;;5.83;100.00
64628;BME280;68467;50.960;0.314;2024-02-23T01:52:57;97038.39;;;5.98;100.00
64628;BME280;68467;50.960;0.314;2024-02-23T01:55:27;97032.24;;;5.93;100.00
64628;BME280;68467;50.960;0.314;2024-02-23T01:57:56;97030.95;;;5.43;100.00
64628;BME280;68467;50.960;0.314;2024-02-23T02:00:23;97023.46;;;6.04;100.00
64628;BME280;68467;50.960;0.314;2024-02-23T02:02:50;97022.90;;;6.07;100.00
64628;BME280;68467;50.960;0.314;2024-02-23T02:05:17;97014.69;;;5.77;100.00
64628;BME280;68467;50.960;0.314;2024-02-23T02:07:46;97010.63;;;6.01;100.00
64628;BME280;68467;50.960;0.314;2024-02-23T02:10:14;97003.74;;;5.98;100.00
64628;BME280;68467;50.960;0.314;2024-02-23T02:12:41;97000.09;;;6.05;100.00
64628;BME280;68467;50.960;0.314;2024-02-23T02:15:09;96996.98;;;5.49;100.00
64628;BME280;68467;50.960;0.314;2024-02-23T02:17:36;96992.00;;;5.42;100.00
64628;BME280;68467;50.960;0.314;2024-02-23T02:20:04;96985.38;;;5.16;100.00
64628;BME280;68467;50.960;0.314;2024-02-23T02:22:32;96990.48;;;4.92;100.00
64628;BME280;68467;50.960;0.314;2024-02-23T02:25:00;96982.33;;;4.87;100.00
64628;BME280;68467;50.960;0.314;2024-02-23T02:27:32;96972.48;;;4.70;100.00
64628;BME280;68467;50.960;0.314;2024-02-23T02:29:59;96968.41;;;4.62;100.00
64628;BME280;68467;50.960;0.314;2024-02-23T02:32:27;96958.29;;;4.81;100.00
64628;BME280;68467;50.960;0.314;2024-02-23T02:34:54;96953.03;;;4.62;100.00
64628;BME280;68467;50.960;0.314;2024-02-23T02:37:22;96951.75;;;5.03;100.00
64628;BME280;68467;50.960;0.314;2024-02-23T02:39:49;96955.92;;;5.17;100.00
64628;BME280;68467;50.960;0.314;2024-02-23T02:42:16;96956.90;;;5.22;100.00
64628;BME280;68467;50.960;0.314;2024-02-23T02:44:44;96952.95;;;5.56;100.00
64628;BME280;68467;50.960;0.314;2024-02-23T02:47:11;96939.34;;;6.29;100.00
64628;BME280;68467;50.960;0.314;2024-02-23T02:49:39;96937.78;;;5.48;100.00
64628;BME280;68467;50.960;0.314;2024-02-23T02:52:07;96940.86;;;5.20;100.00
64628;BME280;68467;50.960;0.314;2024-02-23T02:54:34;96967.19;;;5.08;100.00
64628;BME280;68467;50.960;0.314;2024-02-23T02:57:01;96934.03;;;4.56;100.00
64628;BME280;68467;50.960;0.314;2024-02-23T02:59:28;96929.76;;;4.78;100.00
64628;BME280;68467;50.960;0.314;2024-02-23T03:07:03;96930.06;;;5.29;100.00
64628;BME280;68467;50.960;0.314;2024-02-23T03:09:30;96926.11;;;4.83;100.00
64628;BME280;68467;50.960;0.314;2024-02-23T03:11:57;96938.23;;;4.73;100.00
64628;BME280;68467;50.960;0.314;2024-02-23T03:14:25;96937.71;;;5.38;100.00
64628;BME280;68467;50.960;0.314;2024-02-23T03:16:53;96932.25;;;5.60;100.00
64628;BME280;68467;50.960;0.314;2024-02-23T03:19:20;96931.85;;;5.63;100.00
64628;BME280;68467;50.960;0.314;2024-02-23T03:21:47;96923.64;;;5.50;100.00
64628;BME280;68467;50.960;0.314;2024-02-23T03:24:15;96924.61;;;5.99;100.00
64628;BME280;68467;50.960;0.314;2024-02-23T03:26:42;96932.17;;;5.56;100.00
64628;BME280;68467;50.960;0.314;2024-02-23T03:29:10;96924.42;;;6.01;100.00
64628;BME280;68467;50.960;0.314;2024-02-23T03:31:37;96925.90;;;6.39;100.00
64628;BME280;68467;50.960;0.314;2024-02-23T03:34:05;96911.55;;;6.31;100.00
64628;BME280;68467;50.960;0.314;2024-02-23T03:36:32;96904.41;;;6.00;100.00
64628;BME280;68467;50.960;0.314;2024-02-23T03:38:59;96898.03;;;6.49;100.00
64628;BME280;68467;50.960;0.314;2024-02-23T03:41:26;96893.36;;;6.14;100.00
64628;BME280;68467;50.960;0.314;2024-02-23T03:43:53;96885.62;;;6.60;100.00
64628;BME280;68467;50.960;0.314;2024-02-23T03:46:20;96890.35;;;6.28;100.00
64628;BME280;68467;50.960;0.314;2024-02-23T03:48:47;96888.45;;;6.43;100.00
64628;BME280;68467;50.960;0.314;2024-02-23T03:51:15;96888.83;;;6.04;100.00
64628;BME280;68467;50.960;0.314;2024-02-23T03:53:43;96888.16;;;5.64;100.00
64628;BME280;68467;50.960;0.314;2024-02-23T03:56:10;96880.90;;;5.76;100.00
64628;BME280;68467;50.960;0.314;2024-02-23T03:58:37;96871.46;;;5.31;100.00
64628;BME280;68467;50.960;0.314;2024-02-23T04:01:04;96881.18;;;5.54;100.00
64628;BME280;68467;50.960;0.314;2024-02-23T04:03:31;96876.28;;;5.20;100.00
64628;BME280;68467;50.960;0.314;2024-02-23T04:05:58;96870.16;;;4.65;100.00
64628;BME280;68467;50.960;0.314;2024-02-23T04:08:27;96869.05;;;5.30;100.00
64628;BME280;68467;50.960;0.314;2024-02-23T04:10:55;96862.91;;;5.52;100.00
64628;BME280;68467;50.960;0.314;2024-02-23T04:13:23;96865.38;;;5.65;100.00
64628;BME280;68467;50.960;0.314;2024-02-23T04:15:50;96862.42;;;6.16;100.00
64628;BME280;68467;50.960;0.314;2024-02-23T04:18:17;96862.31;;;6.09;100.00
64628;BME280;68467;50.960;0.314;2024-02-23T04:20:45;96850.15;;;5.78;100.00
64628;BME280;68467;50.960;0.314;2024-02-23T04:23:12;96857.93;;;5.84;100.00
64628;BME280;68467;50.960;0.314;2024-02-23T04:25:39;96859.89;;;6.12;100.00
64628;BME280;68467;50.960;0.314;2024-02-23T04:28:07;96865.52;;;5.72;100.00
64628;BME280;68467;50.960;0.314;2024-02-23T04:30:35;96861.80;;;7.02;100.00
64628;BME280;68467;50.960;0.314;2024-02-23T04:33:02;96866.31;;;6.86;100.00
64628;BME280;68467;50.960;0.314;2024-02-23T04:35:30;96872.12;;;6.28;100.00
64628;BME280;68467;50.960;0.314;2024-02-23T04:37:57;96876.80;;;6.35;100.00
64628;BME280;68467;50.960;0.314;2024-02-23T04:40:24;96877.20;;;6.57;100.00
64628;BME280;68467;50.960;0.314;2024-02-23T04:42:51;96884.60;;;6.19;100.00
64628;BME280;68467;50.960;0.314;2024-02-23T04:45:18;96891.32;;;5.79;100.00
64628;BME280;68467;50.960;0.314;2024-02-23T04:47:45;96896.48;;;5.77;100.00
64628;BME280;68467;50.960;0.314;2024-02-23T04:50:12;96903.57;;;5.71;100.00
64628;BME280;68467;50.960;0.314;2024-02-23T04:52:39;96904.74;;;5.82;100.00
64628;BME280;68467;50.960;0.314;2024-02-23T04:55:07;96900.15;;;5.86;100.00
64628;BME280;68467;50.960;0.314;2024-02-23T04:57:36;96894.79;;;5.80;100.00
64628;BME280;68467;50.960;0.314;2024-02-23T05:00:04;96895.54;;;5.80;100.00
64628;BME280;68467;50.960;0.314;2024-02-23T05:02:31;96901.51;;;5.77;100.00
64628;BME280;68467;50.960;0.314;2024-02-23T05:04:58;96900.31;;;5.76;100.00
64628;BME280;68467;50.960;0.314;2024-02-23T05:07:26;96902.66;;;5.69;100.00
64628;BME280;68467;50.960;0.314;2024-02-23T05:09:53;96904.12;;;5.60;100.00
64628;BME280;68467;50.960;0.314;2024-02-23T05:12:20;96900.26;;;5.45;100.00
64628;BME280;68467;50.960;0.314;2024-02-23T05:14:47;96908.95;;;5.42;100.00
64628;BME280;68467;50.960;0.314;2024-02-23T05:17:14;96909.96;;;4.92;100.00
64628;BME280;68467;50.960;0.314;2024-02-23T05:19:41;96908.70;;;6.13;100.00
64628;BME280;68467;50.960;0.314;2024-02-23T05:22:09;96910.89;;;5.58;100.00
64628;BME280;68467;50.960;0.314;2024-02-23T05:24:36;96913.50;;;5.16;100.00
64628;BME280;68467;50.960;0.314;2024-02-23T05:27:04;96912.98;;;4.89;100.00
64628;BME280;68467;50.960;0.314;2024-02-23T05:29:31;96910.98;;;4.82;100.00
64628;BME280;68467;50.960;0.314;2024-02-23T05:31:58;96915.27;;;4.26;100.00
64628;BME280;68467;50.960;0.314;2024-02-23T05:34:25;96916.13;;;4.25;100.00
64628;BME280;68467;50.960;0.314;2024-02-23T05:36:52;96918.75;;;4.80;100.00
64628;BME280;68467;50.960;0.314;2024-02-23T05:39:20;96924.88;;;4.97;100.00
64628;BME280;68467;50.960;0.314;2024-02-23T05:41:47;96918.05;;;5.04;100.00
64628;BME280;68467;50.960;0.314;2024-02-23T05:44:14;96922.69;;;4.67;100.00
64628;BME280;68467;50.960;0.314;2024-02-23T05:46:42;96929.04;;;4.83;100.00
64628;BME280;68467;50.960;0.314;2024-02-23T05:49:10;96932.46;;;4.82;100.00
64628;BME280;68467;50.960;0.314;2024-02-23T05:51:37;96935.62;;;4.71;100.00
64628;BME280;68467;50.960;0.314;2024-02-23T05:54:04;96945.95;;;5.01;100.00
64628;BME280;68467;50.960;0.314;2024-02-23T05:56:32;96943.98;;;4.93;100.00
64628;BME280;68467;50.960;0.314;2024-02-23T05:58:59;96945.34;;;4.79;100.00
64628;BME280;68467;50.960;0.314;2024-02-23T06:01:26;96941.42;;;4.60;100.00
64628;BME280;68467;50.960;0.314;2024-02-23T06:03:54;96945.55;;;4.97;100.00
64628;BME280;68467;50.960;0.314;2024-02-23T06:06:22;96952.72;;;5.14;100.00
64628;BME280;68467;50.960;0.314;2024-02-23T06:08:49;96954.19;;;4.78;100.00
64628;BME280;68467;50.960;0.314;2024-02-23T06:11:16;96953.95;;;4.85;100.00
64628;BME280;68467;50.960;0.314;2024-02-23T06:13:43;96959.86;;;5.10;100.00
64628;BME280;68467;50.960;0.314;2024-02-23T06:16:11;96954.59;;;4.85;100.00
64628;BME280;68467;50.960;0.314;2024-02-23T06:18:38;96959.50;;;4.50;100.00
64628;BME280;68467;50.960;0.314;2024-02-23T06:21:11;96960.14;;;5.00;100.00
64628;BME280;68467;50.960;0.314;2024-02-23T06:23:39;96962.75;;;4.98;100.00
64628;BME280;68467;50.960;0.314;2024-02-23T06:26:07;96965.87;;;4.73;100.00
64628;BME280;68467;50.960;0.314;2024-02-23T06:28:34;96968.23;;;4.93;100.00
64628;BME280;68467;50.960;0.314;2024-02-23T06:31:01;96969.71;;;5.04;100.00
64628;BME280;68467;50.960;0.314;2024-02-23T06:33:29;96970.60;;;5.29;100.00
64628;BME280;68467;50.960;0.314;2024-02-23T06:35:57;96975.67;;;5.19;100.00
64628;BME280;68467;50.960;0.314;2024-02-23T06:38:24;96972.75;;;4.89;100.00
64628;BME280;68467;50.960;0.314;2024-02-23T06:40:51;96974.69;;;4.90;100.00
64628;BME280;68467;50.960;0.314;2024-02-23T06:43:19;96979.74;;;4.40;100.00
64628;BME280;68467;50.960;0.314;2024-02-23T06:45:47;96984.80;;;5.00;100.00
64628;BME280;68467;50.960;0.314;2024-02-23T06:48:14;96983.90;;;5.02;100.00
64628;BME280;68467;50.960;0.314;2024-02-23T06:50:42;96993.28;;;5.00;100.00
64628;BME280;68467;50.960;0.314;2024-02-23T06:53:09;96994.67;;;5.22;100.00
64628;BME280;68467;50.960;0.314;2024-02-23T06:55:37;96989.40;;;5.19;100.00
64628;BME280;68467;50.960;0.314;2024-02-23T06:58:05;96987.24;;;5.20;100.00
64628;BME280;68467;50.960;0.314;2024-02-23T07:00:37;96987.57;;;5.63;100.00
64628;BME280;68467;50.960;0.314;2024-02-23T07:03:05;96984.64;;;5.45;100.00
64628;BME280;68467;50.960;0.314;2024-02-23T07:05:32;96985.15;;;5.10;100.00
64628;BME280;68467;50.960;0.314;2024-02-23T07:08:00;96987.83;;;5.15;100.00
64628;BME280;68467;50.960;0.314;2024-02-23T07:10:28;96993.00;;;5.45;100.00
64628;BME280;68467;50.960;0.314;2024-02-23T07:12:55;96990.98;;;4.92;100.00
64628;BME280;68467;50.960;0.314;2024-02-23T07:15:23;96992.71;;;4.65;100.00
64628;BME280;68467;50.960;0.314;2024-02-23T07:17:50;96993.27;;;5.40;100.00
64628;BME280;68467;50.960;0.314;2024-02-23T07:20:17;96992.88;;;5.56;100.00
64628;BME280;68467;50.960;0.314;2024-02-23T07:22:45;96998.67;;;4.98;100.00
64628;BME280;68467;50.960;0.314;2024-02-23T07:25:16;96998.90;;;5.17;100.00
64628;BME280;68467;50.960;0.314;2024-02-23T07:27:44;97002.37;;;5.27;100.00
64628;BME280;68467;50.960;0.314;2024-02-23T07:30:12;97004.86;;;5.41;100.00
64628;BME280;68467;50.960;0.314;2024-02-23T07:32:39;97008.45;;;5.01;100.00
64628;BME280;68467;50.960;0.314;2024-02-23T07:35:07;97009.45;;;5.70;100.00
64628;BME280;68467;50.960;0.314;2024-02-23T07:37:35;97009.27;;;5.30;100.00
64628;BME280;68467;50.960;0.314;2024-02-23T07:40:03;97014.71;;;5.34;100.00
64628;BME280;68467;50.960;0.314;2024-02-23T07:42:31;97008.65;;;5.41;100.00
64628;BME280;68467;50.960;0.314;2024-02-23T07:44:58;97008.69;;;5.70;100.00
64628;BME280;68467;50.960;0.314;2024-02-23T07:47:25;97008.09;;;5.22;100.00
64628;BME280;68467;50.960;0.314;2024-02-23T07:49:52;97013.03;;;6.22;100.00
64628;BME280;68467;50.960;0.314;2024-02-23T07:52:20;97016.25;;;6.17;100.00
64628;BME280;68467;50.960;0.314;2024-02-23T07:54:48;97015.90;;;6.37;100.00
64628;BME280;68467;50.960;0.314;2024-02-23T07:57:15;97013.45;;;6.18;100.00
64628;BME280;68467;50.960;0.314;2024-02-23T07:59:42;97007.09;;;6.41;100.00
64628;BME280;68467;50.960;0.314;2024-02-23T08:02:09;97010.46;;;6.56;100.00
64628;BME280;68467;50.960;0.314;2024-02-23T08:04:36;97003.00;;;6.17;100.00
64628;BME280;68467;50.960;0.314;2024-02-23T08:07:04;97004.78;;;6.16;100.00
64628;BME280;68467;50.960;0.314;2024-02-23T08:09:31;97007.60;;;5.85;100.00
64628;BME280;68467;50.960;0.314;2024-02-23T08:11:58;97013.89;;;5.73;100.00
64628;BME280;68467;50.960;0.314;2024-02-23T08:14:26;97012.46;;;6.37;100.00
64628;BME280;68467;50.960;0.314;2024-02-23T08:16:54;97013.22;;;6.27;100.00
64628;BME280;68467;50.960;0.314;2024-02-23T08:19:21;97015.65;;;5.83;100.00
64628;BME280;68467;50.960;0.314;2024-02-23T08:21:48;97024.28;;;5.82;100.00
64628;BME280;68467;50.960;0.314;2024-02-23T08:24:15;97021.99;;;6.05;100.00
64628;BME280;68467;50.960;0.314;2024-02-23T08:26:42;97022.04;;;6.30;100.00
64628;BME280;68467;50.960;0.314;2024-02-23T08:29:09;97022.39;;;6.67;100.00
64628;BME280;68467;50.960;0.314;2024-02-23T08:31:36;97033.67;;;6.02;100.00
64628;BME280;68467;50.960;0.314;2024-02-23T08:34:04;97032.79;;;7.27;100.00
64628;BME280;68467;50.960;0.314;2024-02-23T08:36:30;97037.43;;;6.91;100.00
64628;BME280;68467;50.960;0.314;2024-02-23T08:38:58;97035.95;;;7.00;100.00
64628;BME280;68467;50.960;0.314;2024-02-23T08:41:27;97042.63;;;7.19;100.00
64628;BME280;68467;50.960;0.314;2024-02-23T08:43:55;97045.02;;;7.55;100.00
64628;BME280;68467;50.960;0.314;2024-02-23T08:46:22;97051.74;;;6.69;100.00
64628;BME280;68467;50.960;0.314;2024-02-23T08:48:50;97057.42;;;7.49;100.00
64628;BME280;68467;50.960;0.314;2024-02-23T08:51:17;97057.69;;;7.24;100.00
64628;BME280;68467;50.960;0.314;2024-02-23T08:53:44;97054.62;;;8.04;100.00
64628;BME280;68467;50.960;0.314;2024-02-23T08:56:12;97058.65;;;7.28;100.00
64628;BME280;68467;50.960;0.314;2024-02-23T08:58:40;97057.50;;;7.58;100.00
64628;BME280;68467;50.960;0.314;2024-02-23T09:01:07;97057.75;;;7.73;100.00
64628;BME280;68467;50.960;0.314;2024-02-23T09:03:34;97063.38;;;6.70;100.00
64628;BME280;68467;50.960;0.314;2024-02-23T09:06:01;97062.90;;;7.36;100.00
64628;BME280;68467;50.960;0.314;2024-02-23T09:08:29;97064.80;;;7.33;100.00
64628;BME280;68467;50.960;0.314;2024-02-23T09:10:57;97058.74;;;7.85;100.00
64628;BME280;68467;50.960;0.314;2024-02-23T09:13:24;97069.42;;;7.46;100.00
64628;BME280;68467;50.960;0.314;2024-02-23T09:15:51;97071.40;;;7.53;100.00
64628;BME280;68467;50.960;0.314;2024-02-23T09:18:18;97080.30;;;7.52;100.00
64628;BME280;68467;50.960;0.314;2024-02-23T09:20:45;97082.40;;;7.97;100.00
64628;BME280;68467;50.960;0.314;2024-02-23T09:23:12;97079.65;;;8.07;100.00
64628;BME280;68467;50.960;0.314;2024-02-23T09:25:39;97079.06;;;8.43;100.00
64628;BME280;68467;50.960;0.314;2024-02-23T09:28:06;97081.72;;;8.87;100.00
64628;BME280;68467;50.960;0.314;2024-02-23T09:30:33;97085.14;;;8.90;100.00
64628;BME280;68467;50.960;0.314;2024-02-23T09:33:01;97084.75;;;8.49;100.00
64628;BME280;68467;50.960;0.314;2024-02-23T09:35:28;97085.41;;;8.91;100.00
64628;BME280;68467;50.960;0.314;2024-02-23T09:37:55;97088.11;;;8.76;100.00
64628;BME280;68467;50.960;0.314;2024-02-23T09:40:23;97090.10;;;9.15;100.00
64628;BME280;68467;50.960;0.314;2024-02-23T09:42:54;97089.87;;;8.07;100.00
64628;BME280;68467;50.960;0.314;2024-02-23T09:45:23;97087.71;;;8.88;100.00
64628;BME280;68467;50.960;0.314;2024-02-23T09:47:52;97087.67;;;8.11;100.00
64628;BME280;68467;50.960;0.314;2024-02-23T09:50:22;97087.98;;;7.99;100.00
64628;BME280;68467;50.960;0.314;2024-02-23T09:52:50;97088.09;;;8.58;100.00
64628;BME280;68467;50.960;0.314;2024-02-23T09:55:17;97089.23;;;7.97;100.00
64628;BME280;68467;50.960;0.314;2024-02-23T09:57:45;97089.58;;;8.27;100.00
64628;BME280;68467;50.960;0.314;2024-02-23T10:00:16;97087.06;;;8.91;100.00
64628;BME280;68467;50.960;0.314;2024-02-23T10:02:44;97090.52;;;8.52;100.00
64628;BME280;68467;50.960;0.314;2024-02-23T10:05:12;97090.44;;;8.38;100.00
64628;BME280;68467;50.960;0.314;2024-02-23T10:07:41;97089.51;;;8.35;100.00
64628;BME280;68467;50.960;0.314;2024-02-23T10:10:09;97089.92;;;7.98;100.00
64628;BME280;68467;50.960;0.314;2024-02-23T10:12:37;97089.70;;;8.61;100.00
64628;BME280;68467;50.960;0.314;2024-02-23T10:15:10;97091.86;;;8.83;100.00
64628;BME280;68467;50.960;0.314;2024-02-23T10:17:37;97087.88;;;8.11;100.00
64628;BME280;68467;50.960;0.314;2024-02-23T10:20:06;97085.06;;;8.76;100.00
64628;BME280;68467;50.960;0.314;2024-02-23T10:22:35;97090.93;;;8.72;100.00
64628;BME280;68467;50.960;0.314;2024-02-23T10:25:02;97090.77;;;8.89;100.00
64628;BME280;68467;50.960;0.314;2024-02-23T10:27:30;97090.53;;;8.17;100.00
64628;BME280;68467;50.960;0.314;2024-02-23T10:29:57;97095.50;;;9.14;100.00
64628;BME280;68467;50.960;0.314;2024-02-23T10:32:25;97098.89;;;8.27;100.00
64628;BME280;68467;50.960;0.314;2024-02-23T10:35:00;97097.99;;;8.86;100.00
64628;BME280;68467;50.960;0.314;2024-02-23T10:37:29;97099.64;;;8.22;100.00
64628;BME280;68467;50.960;0.314;2024-02-23T10:39:58;97103.02;;;8.50;100.00
64628;BME280;68467;50.960;0.314;2024-02-23T10:42:28;97103.09;;;8.67;100.00
64628;BME280;68467;50.960;0.314;2024-02-23T10:44:58;97110.56;;;8.85;100.00
64628;BME280;68467;50.960;0.314;2024-02-23T10:47:26;97115.04;;;8.88;100.00
64628;BME280;68467;50.960;0.314;2024-02-23T10:49:56;97117.27;;;8.98;100.00
64628;BME280;68467;50.960;0.314;2024-02-23T10:52:24;97121.14;;;9.28;100.00
64628;BME280;68467;50.960;0.314;2024-02-23T10:54:52;97119.40;;;9.25;100.00
64628;BME280;68467;50.960;0.314;2024-02-23T10:57:19;97120.76;;;10.48;100.00
64628;BME280;68467;50.960;0.314;2024-02-23T10:59:48;97123.45;;;10.37;100.00
64628;BME280;68467;50.960;0.314;2024-02-23T11:02:18;97127.05;;;9.85;100.00
64628;BME280;68467;50.960;0.314;2024-02-23T11:04:47;97126.67;;;10.07;100.00
64628;BME280;68467;50.960;0.314;2024-02-23T11:07:15;97127.99;;;9.90;100.00
64628;BME280;68467;50.960;0.314;2024-02-23T11:09:42;97125.22;;;9.88;100.00
64628;BME280;68467;50.960;0.314;2024-02-23T11:12:11;97125.05;;;10.50;100.00
64628;BME280;68467;50.960;0.314;2024-02-23T11:14:38;97125.20;;;10.23;100.00
64628;BME280;68467;50.960;0.314;2024-02-23T11:17:05;97123.77;;;9.57;100.00
64628;BME280;68467;50.960;0.314;2024-02-23T11:19:33;97124.10;;;9.70;100.00
64628;BME280;68467;50.960;0.314;2024-02-23T11:22:01;97117.87;;;9.15;100.00
64628;BME280;68467;50.960;0.314;2024-02-23T11:24:29;97117.53;;;8.65;100.00
64628;BME280;68467;50.960;0.314;2024-02-23T11:26:57;97118.48;;;9.30;100.00
64628;BME280;68467;50.960;0.314;2024-02-23T11:29:26;97113.99;;;9.97;100.00
64628;BME280;68467;50.960;0.314;2024-02-23T11:31:53;97107.64;;;9.98;100.00
64628;BME280;68467;50.960;0.314;2024-02-23T11:34:22;97110.78;;;9.78;100.00
64628;BME280;68467;50.960;0.314;2024-02-23T11:36:51;97113.00;;;10.25;100.00
64628;BME280;68467;50.960;0.314;2024-02-23T11:39:19;97117.22;;;9.66;100.00
64628;BME280;68467;50.960;0.314;2024-02-23T11:41:48;97120.21;;;9.53;100.00
64628;BME280;68467;50.960;0.314;2024-02-23T11:44:16;97119.71;;;9.79;100.00
64628;BME280;68467;50.960;0.314;2024-02-23T11:46:44;97118.33;;;9.78;100.00
64628;BME280;68467;50.960;0.314;2024-02-23T11:49:12;97122.23;;;9.26;100.00
64628;BME280;68467;50.960;0.314;2024-02-23T11:51:39;97122.26;;;9.60;100.00
64628;BME280;68467;50.960;0.314;2024-02-23T11:54:06;97128.42;;;9.98;100.00
64628;BME280;68467;50.960;0.314;2024-02-23T11:56:33;97130.28;;;8.56;100.00
64628;BME280;68467;50.960;0.314;2024-02-23T11:59:01;97142.42;;;7.87;100.00
64628;BME280;68467;50.960;0.314;2024-02-23T12:01:29;97139.73;;;7.76;100.00
64628;BME280;68467;50.960;0.314;2024-02-23T12:03:57;97143.78;;;7.94;100.00
64628;BME280;68467;50.960;0.314;2024-02-23T12:06:25;97139.23;;;7.29;100.00
64628;BME280;68467;50.960;0.314;2024-02-23T12:08:53;97142.93;;;7.41;100.00
64628;BME280;68467;50.960;0.314;2024-02-23T12:11:20;97146.71;;;7.14;100.00
64628;BME280;68467;50.960;0.314;2024-02-23T12:13:47;97141.68;;;7.30;100.00
64628;BME280;68467;50.960;0.314;2024-02-23T12:16:14;97140.15;;;7.24;100.00
64628;BME280;68467;50.960;0.314;2024-02-23T12:18:42;97141.40;;;7.16;100.00
64628;BME280;68467;50.960;0.314;2024-02-23T12:21:09;97136.99;;;6.87;100.00
64628;BME280;68467;50.960;0.314;2024-02-23T12:23:40;97136.54;;;6.52;100.00
64628;BME280;68467;50.960;0.314;2024-02-23T12:26:08;97135.48;;;6.37;100.00
64628;BME280;68467;50.960;0.314;2024-02-23T12:28:36;97132.56;;;6.16;100.00
64628;BME280;68467;50.960;0.314;2024-02-23T12:31:05;97135.38;;;6.03;100.00
64628;BME280;68467;50.960;0.314;2024-02-23T12:33:34;97131.84;;;5.86;100.00
64628;BME280;68467;50.960;0.314;2024-02-23T12:36:03;97133.41;;;5.97;100.00
64628;BME280;68467;50.960;0.314;2024-02-23T12:38:31;97133.48;;;6.22;100.00
64628;BME280;68467;50.960;0.314;2024-02-23T12:40:59;97139.51;;;6.42;100.00
64628;BME280;68467;50.960;0.314;2024-02-23T12:43:27;97138.40;;;6.10;100.00
64628;BME280;68467;50.960;0.314;2024-02-23T12:45:55;97138.57;;;5.49;100.00
64628;BME280;68467;50.960;0.314;2024-02-23T12:48:23;97139.95;;;5.32;100.00
64628;BME280;68467;50.960;0.314;2024-02-23T12:50:52;97141.66;;;5.22;100.00
64628;BME280;68467;50.960;0.314;2024-02-23T12:53:36;97143.73;;;5.54;100.00
64628;BME280;68467;50.960;0.314;2024-02-23T12:56:06;97135.96;;;5.67;100.00
64628;BME280;68467;50.960;0.314;2024-02-23T12:58:33;97124.47;;;5.82;100.00
64628;BME280;68467;50.960;0.314;2024-02-23T13:01:00;97130.75;;;5.47;100.00
64628;BME280;68467;50.960;0.314;2024-02-23T13:03:28;97125.10;;;5.74;100.00
64628;BME280;68467;50.960;0.314;2024-02-23T13:05:56;97124.83;;;5.49;100.00
64628;BME280;68467;50.960;0.314;2024-02-23T13:08:24;97115.93;;;5.60;100.00